createdAt,value
2023-01-10T00:02:02.406Z,87.83
2023-01-10T00:04:30.949Z,87.87
2023-01-10T00:06:58.411Z,88.12
2023-01-10T00:09:25.964Z,87.93
2023-01-10T00:12:11.659Z,87.71
2023-01-10T00:14:39.386Z,87.61
2023-01-10T00:17:06.653Z,87.41
2023-01-10T00:19:34.282Z,87.32
2023-01-10T00:22:05.806Z,87.68
2023-01-10T00:24:33.369Z,87.76
2023-01-10T00:27:00.766Z,87.74
2023-01-10T00:29:35.345Z,87.71
2023-01-10T00:32:02.660Z,87.57
2023-01-10T00:34:31.238Z,87.58
2023-01-10T00:36:58.603Z,87.55
2023-01-10T00:39:27.711Z,87.42
2023-01-10T00:42:13.305Z,87.53
2023-01-10T00:44:40.877Z,87.63
2023-01-10T00:47:08.166Z,87.63
2023-01-10T00:49:35.680Z,87.56
2023-01-10T00:52:02.996Z,87.70
2023-01-10T00:54:30.649Z,87.38
2023-01-10T00:56:58.205Z,87.76
2023-01-10T00:59:25.851Z,87.62
2023-01-10T01:01:53.585Z,87.74
2023-01-10T01:04:22.241Z,87.79
2023-01-10T01:06:50.888Z,87.73
2023-01-10T01:09:18.648Z,87.64
2023-01-10T01:11:45.994Z,87.70
2023-01-10T01:14:13.660Z,87.90
2023-01-10T01:16:40.936Z,88.01
2023-01-10T01:19:08.505Z,88.15
2023-01-10T01:21:35.776Z,88.23
2023-01-10T01:24:03.434Z,88.56
2023-01-10T01:26:30.794Z,88.54
2023-01-10T01:28:58.440Z,88.59
2023-01-10T01:31:26.005Z,88.51
2023-01-10T01:33:53.854Z,88.76
2023-01-10T01:36:21.186Z,88.85
2023-01-10T01:38:48.759Z,89.04
2023-01-10T01:41:34.600Z,89.33
2023-01-10T01:44:14.975Z,89.20
2023-01-10T01:46:49.296Z,89.76
2023-01-10T01:49:24.949Z,89.67
2023-01-10T01:52:04.637Z,89.94
2023-01-10T01:54:34.405Z,90.32
2023-01-10T01:57:12.417Z,90.77
2023-01-10T01:59:46.921Z,91.28
2023-01-10T02:02:22.792Z,91.35
2023-01-10T02:05:03.464Z,91.50
2023-01-10T02:07:37.975Z,91.72
2023-01-10T02:10:48.989Z,91.48
2023-01-10T02:13:22.257Z,91.73
2023-01-10T02:15:50.838Z,91.84
2023-01-10T02:18:19.439Z,91.71
2023-01-10T02:21:09.687Z,91.71
2023-01-10T02:24:16.407Z,91.63
2023-01-10T02:27:17.262Z,91.49
2023-01-10T02:31:02.563Z,91.62
2023-01-10T02:34:11.475Z,91.55
2023-01-10T02:36:44.567Z,91.80
2023-01-10T02:39:58.400Z,91.66
2023-01-10T02:42:58.407Z,91.86
2023-01-10T02:45:42.493Z,91.99
2023-01-10T02:48:09.987Z,92.01
2023-01-10T02:50:43.358Z,91.97
2023-01-10T02:53:23.195Z,92.06
2023-01-10T02:56:05.345Z,91.91
2023-01-10T02:58:41.061Z,91.99
2023-01-10T03:01:51.057Z,91.92
2023-01-10T03:04:27.259Z,91.54
2023-01-10T03:07:09.685Z,91.83
2023-01-10T03:10:10.221Z,91.65
2023-01-10T03:13:02.252Z,91.93
2023-01-10T03:15:37.200Z,91.94
2023-01-10T03:18:14.299Z,91.95
2023-01-10T03:20:46.249Z,92.12
2023-01-10T03:23:17.029Z,91.84
2023-01-10T03:25:48.268Z,92.01
2023-01-10T03:28:26.345Z,91.98
2023-01-10T03:31:10.143Z,91.38
2023-01-10T03:33:39.066Z,91.32
2023-01-10T03:37:05.814Z,91.17
2023-01-10T03:40:08.648Z,90.98
2023-01-10T03:43:44.466Z,90.55
2023-01-10T03:46:26.305Z,90.56
2023-01-10T03:48:57.769Z,90.62
2023-01-10T03:51:27.727Z,90.56
2023-01-10T03:53:55.085Z,90.94
2023-01-10T03:56:22.697Z,91.14
2023-01-10T03:58:50.012Z,90.96
2023-01-10T04:01:17.665Z,91.01
2023-01-10T04:03:45.122Z,90.90
2023-01-10T04:06:12.714Z,90.87
2023-01-10T04:08:40.050Z,90.96
2023-01-10T04:11:07.632Z,90.79
2023-01-10T04:13:35.558Z,90.67
2023-01-10T04:16:03.153Z,90.73
2023-01-10T04:18:30.424Z,90.87
2023-01-10T04:20:57.942Z,91.04
2023-01-10T04:23:25.210Z,91.27
2023-01-10T04:25:52.713Z,91.67
2023-01-10T04:28:19.961Z,91.65
2023-01-10T04:30:47.459Z,92.06
2023-01-10T04:33:14.650Z,92.36
2023-01-10T04:35:51.199Z,92.28
2023-01-10T04:38:19.207Z,92.51
2023-01-10T04:40:57.094Z,92.99
2023-01-10T04:43:25.630Z,93.01
2023-01-10T04:45:53.313Z,93.24
2023-01-10T04:48:20.692Z,93.01
2023-01-10T04:50:52.555Z,93.19
2023-01-10T04:53:21.410Z,93.18
2023-01-10T04:55:49.291Z,93.26
2023-01-10T04:58:16.746Z,93.20
2023-01-10T05:00:44.387Z,93.03
2023-01-10T05:03:11.785Z,93.15
2023-01-10T05:05:39.323Z,93.00
2023-01-10T05:08:06.620Z,92.83
2023-01-10T05:10:34.088Z,92.90
2023-01-10T05:13:01.334Z,92.93
2023-01-10T05:15:28.892Z,92.99
2023-01-10T05:18:00.937Z,93.06
2023-01-10T05:20:28.551Z,93.14
2023-01-10T05:22:55.848Z,93.24
2023-01-10T05:25:23.382Z,93.53
2023-01-10T05:27:50.746Z,93.59
2023-01-10T05:30:18.886Z,93.76
2023-01-10T05:32:46.370Z,93.58
2023-01-10T05:35:14.161Z,93.91
2023-01-10T05:37:41.421Z,93.80
2023-01-10T05:40:10.477Z,93.97
2023-01-10T05:42:37.899Z,93.91
2023-01-10T05:45:06.187Z,93.81
2023-01-10T05:47:33.440Z,93.87
2023-01-10T05:50:00.986Z,93.74
2023-01-10T05:52:28.332Z,93.96
2023-01-10T05:54:55.903Z,94.11
2023-01-10T05:57:24.758Z,93.87
2023-01-10T05:59:52.813Z,94.12
2023-01-10T06:02:20.092Z,94.49
2023-01-10T06:04:47.825Z,94.54
2023-01-10T06:07:15.471Z,94.56
2023-01-10T06:09:43.184Z,94.50
2023-01-10T06:12:10.569Z,94.51
2023-01-10T06:14:38.129Z,94.53
2023-01-10T06:17:10.097Z,94.31
2023-01-10T06:19:37.712Z,93.85
2023-01-10T06:22:05.414Z,93.89
2023-01-10T06:24:32.904Z,93.67
2023-01-10T06:27:00.194Z,93.54
2023-01-10T06:29:27.849Z,93.70
2023-01-10T06:31:55.370Z,93.70
2023-01-10T06:34:22.929Z,93.30
2023-01-10T06:36:50.192Z,93.35
2023-01-10T06:39:17.812Z,93.19
2023-01-10T06:41:45.078Z,93.04
2023-01-10T06:44:12.762Z,93.07
2023-01-10T06:46:40.239Z,92.58
2023-01-10T06:49:08.745Z,92.59
2023-01-10T06:51:36.117Z,92.44
2023-01-10T06:54:03.774Z,92.65
2023-01-10T06:56:31.183Z,91.89
2023-01-10T06:58:58.745Z,91.91
2023-01-10T07:01:26.688Z,91.65
2023-01-10T07:03:54.391Z,91.70
2023-01-10T07:06:21.676Z,91.64
2023-01-10T07:08:49.293Z,91.55
2023-01-10T07:11:17.840Z,91.55
2023-01-10T07:13:45.426Z,91.33
2023-01-10T07:16:16.366Z,91.39
2023-01-10T07:18:44.560Z,91.54
2023-01-10T07:21:13.055Z,92.10
2023-01-10T07:23:40.619Z,92.07
2023-01-10T07:26:11.955Z,91.96
2023-01-10T07:28:39.544Z,91.79
2023-01-10T07:31:06.976Z,91.65
2023-01-10T07:33:34.530Z,91.42
2023-01-10T07:36:03.132Z,91.38
2023-01-10T07:38:30.820Z,91.15
2023-01-10T07:40:58.087Z,91.01
2023-01-10T07:43:25.657Z,91.27
2023-01-10T07:45:53.033Z,91.50
2023-01-10T07:48:20.721Z,91.55
2023-01-10T07:50:48.013Z,91.78
2023-01-10T07:53:15.896Z,91.71
2023-01-10T07:55:45.839Z,91.38
2023-01-10T07:58:13.403Z,91.40
2023-01-10T08:00:40.689Z,91.23
2023-01-10T08:03:10.846Z,91.31
2023-01-10T08:05:38.536Z,91.09
2023-01-10T08:08:08.078Z,90.71
2023-01-10T08:10:37.278Z,90.47
2023-01-10T08:13:17.940Z,90.47
2023-01-10T08:15:50.311Z,90.47
2023-01-10T08:18:19.937Z,90.17
2023-01-10T08:20:50.733Z,90.05
2023-01-10T08:23:20.574Z,89.96
2023-01-10T08:25:48.448Z,90.19
2023-01-10T08:28:16.164Z,90.21
2023-01-10T08:30:44.110Z,89.95
2023-01-10T08:33:12.591Z,89.83
2023-01-10T08:35:43.119Z,89.89
2023-01-10T08:38:11.795Z,89.81
2023-01-10T08:40:39.272Z,89.66
2023-01-10T08:43:11.732Z,89.73
2023-01-10T08:45:39.823Z,89.54
2023-01-10T08:48:09.543Z,89.74
2023-01-10T08:50:37.354Z,90.07
2023-01-10T08:53:05.502Z,90.17
2023-01-10T08:55:35.744Z,90.00
2023-01-10T08:58:03.723Z,90.02
2023-01-10T09:00:31.415Z,90.21
2023-01-10T09:02:59.127Z,90.29
2023-01-10T09:05:28.002Z,90.39
2023-01-10T09:08:02.041Z,90.30
2023-01-10T09:10:30.373Z,90.36
2023-01-10T09:13:01.686Z,90.13
2023-01-10T09:15:35.766Z,90.70
2023-01-10T09:18:07.320Z,90.49
2023-01-10T09:20:41.047Z,91.02
2023-01-10T09:23:12.585Z,92.12
2023-01-10T09:25:39.854Z,92.46
2023-01-10T09:28:07.641Z,92.49
2023-01-10T09:30:35.567Z,92.47
2023-01-10T09:33:04.347Z,92.40
2023-01-10T09:35:35.687Z,92.69
2023-01-10T09:38:06.679Z,92.74
2023-01-10T09:40:55.797Z,92.99
2023-01-10T09:43:28.902Z,92.91
2023-01-10T09:46:18.112Z,92.96
2023-01-10T09:49:13.748Z,93.59
2023-01-10T09:51:52.401Z,93.16
2023-01-10T09:54:31.810Z,93.17
2023-01-10T09:57:02.077Z,93.23
2023-01-10T09:59:43.053Z,93.42
2023-01-10T10:02:44.506Z,92.85
2023-01-10T10:05:25.203Z,93.14
2023-01-10T10:08:00.352Z,92.74
2023-01-10T10:10:39.971Z,92.82
2023-01-10T10:13:28.097Z,92.39
2023-01-10T10:16:10.761Z,92.61
2023-01-10T10:18:50.027Z,92.69
2023-01-10T10:22:07.479Z,92.60
2023-01-10T10:25:14.986Z,92.20
2023-01-10T10:28:13.059Z,92.21
2023-01-10T10:31:13.903Z,92.39
2023-01-10T10:34:29.245Z,91.91
2023-01-10T10:37:18.907Z,92.20
2023-01-10T10:40:11.873Z,92.60
2023-01-10T10:42:51.074Z,92.87
2023-01-10T10:45:46.335Z,92.45
2023-01-10T10:48:27.563Z,92.23
2023-01-10T10:51:36.534Z,92.23
2023-01-10T10:54:04.106Z,92.06
2023-01-10T10:56:32.474Z,91.38
2023-01-10T10:59:01.038Z,91.38
2023-01-10T11:01:28.833Z,91.07
2023-01-10T11:04:08.954Z,90.85
2023-01-10T11:06:41.123Z,90.88
2023-01-10T11:09:08.769Z,91.13
2023-01-10T11:11:45.740Z,90.97
2023-01-10T11:14:13.755Z,91.14
2023-01-10T11:16:45.090Z,91.24
2023-01-10T11:19:15.564Z,91.64
2023-01-10T11:21:57.679Z,91.98
2023-01-10T11:24:51.736Z,91.86
2023-01-10T11:27:25.907Z,91.90
2023-01-10T11:30:00.726Z,91.58
2023-01-10T11:32:40.036Z,91.73
2023-01-10T11:35:34.492Z,91.25
2023-01-10T11:38:19.975Z,91.71
2023-01-10T11:41:06.768Z,92.14
2023-01-10T11:43:41.083Z,92.80
2023-01-10T11:46:23.190Z,93.01
2023-01-10T11:49:14.926Z,93.12
2023-01-10T11:51:58.574Z,93.18
2023-01-10T11:54:29.628Z,93.50
2023-01-10T11:57:14.712Z,93.19
2023-01-10T11:59:56.618Z,93.07
2023-01-10T12:02:29.704Z,93.31
2023-01-10T12:05:04.351Z,93.22
2023-01-10T12:07:56.310Z,93.47
2023-01-10T12:10:27.746Z,93.58
2023-01-10T12:13:08.279Z,93.82
2023-01-10T12:15:36.807Z,94.01
2023-01-10T12:18:06.992Z,94.74
2023-01-10T12:20:52.118Z,94.41
2023-01-10T12:23:25.385Z,94.05
2023-01-10T12:26:07.094Z,94.10
2023-01-10T12:28:44.089Z,94.35
2023-01-10T12:31:15.554Z,94.88
2023-01-10T12:33:51.578Z,94.47
2023-01-10T12:36:36.145Z,94.92
2023-01-10T12:40:02.366Z,94.91
2023-01-10T12:43:10.408Z,94.83
2023-01-10T12:45:57.058Z,94.70
2023-01-10T12:49:13.901Z,94.71
2023-01-10T12:51:43.462Z,94.71
2023-01-10T12:54:22.279Z,94.90
2023-01-10T12:56:51.064Z,94.91
2023-01-10T12:59:37.313Z,95.21
2023-01-10T13:02:19.720Z,95.13
2023-01-10T13:04:59.881Z,95.41
2023-01-10T13:07:33.702Z,95.33
2023-01-10T13:10:07.264Z,95.44
2023-01-10T13:12:43.232Z,95.55
2023-01-10T13:15:38.743Z,95.33
2023-01-10T13:18:26.131Z,95.55
2023-01-10T13:21:13.813Z,95.89
2023-01-10T13:23:50.536Z,95.65
2023-01-10T13:26:19.503Z,96.17
2023-01-10T13:29:01.682Z,95.56
2023-01-10T13:31:35.360Z,96.01
2023-01-10T13:34:11.422Z,96.16
2023-01-10T13:37:00.515Z,96.16
2023-01-10T13:39:41.782Z,95.71
2023-01-10T13:42:27.861Z,95.71
2023-01-10T13:45:01.507Z,95.62
2023-01-10T13:47:43.328Z,95.41
2023-01-10T13:50:25.848Z,95.72
2023-01-10T13:53:04.396Z,95.62
2023-01-10T13:55:42.843Z,95.58
2023-01-10T13:58:13.439Z,95.71
2023-01-10T14:00:59.449Z,95.87
2023-01-10T14:04:00.002Z,95.92
2023-01-10T14:06:30.848Z,96.12
2023-01-10T14:09:24.640Z,96.37
2023-01-10T14:11:58.926Z,96.60
2023-01-10T14:14:37.256Z,96.85
2023-01-10T14:17:29.803Z,96.91
2023-01-10T14:20:16.805Z,96.73
2023-01-10T14:23:07.904Z,96.88
2023-01-10T14:25:38.194Z,97.29
2023-01-10T14:28:20.382Z,97.37
2023-01-10T14:31:01.400Z,97.23
2023-01-10T14:33:30.280Z,97.28
2023-01-10T14:36:06.581Z,97.20
2023-01-10T14:38:38.992Z,97.21
2023-01-10T14:41:27.343Z,96.95
2023-01-10T14:44:02.668Z,97.02
2023-01-10T14:46:55.223Z,97.02
2023-01-10T14:49:26.040Z,97.02
2023-01-10T14:52:01.039Z,97.09
2023-01-10T14:54:29.557Z,97.11
2023-01-10T14:56:57.690Z,97.07
2023-01-10T14:59:34.545Z,96.95
2023-01-10T15:02:24.803Z,96.88
2023-01-10T15:04:58.187Z,96.75
2023-01-10T15:07:28.478Z,96.88
2023-01-10T15:10:02.592Z,97.20
2023-01-10T15:12:35.258Z,97.32
2023-01-10T15:15:15.932Z,97.29
2023-01-10T15:17:45.817Z,97.35
2023-01-10T15:20:19.240Z,97.66
2023-01-10T15:23:01.398Z,97.59
2023-01-10T15:25:38.146Z,97.74
2023-01-10T15:28:15.411Z,97.71
2023-01-10T15:30:44.207Z,97.81
2023-01-10T15:33:23.072Z,97.78
2023-01-10T15:35:50.527Z,98.05
2023-01-10T15:38:27.348Z,98.60
2023-01-10T15:41:06.144Z,98.71
2023-01-10T15:43:36.863Z,98.57
2023-01-10T15:46:06.247Z,98.45
2023-01-10T15:48:43.817Z,98.55
2023-01-10T15:51:15.313Z,98.49
2023-01-10T15:54:10.556Z,98.47
2023-01-10T15:56:47.647Z,98.31
2023-01-10T15:59:33.726Z,98.35
2023-01-10T16:02:22.944Z,98.40
2023-01-10T16:04:57.489Z,98.53
2023-01-10T16:07:42.040Z,98.34
2023-01-10T16:10:27.204Z,97.88
2023-01-10T16:13:28.916Z,98.24
2023-01-10T16:16:01.373Z,97.92
2023-01-10T16:18:28.755Z,97.54
2023-01-10T16:21:00.944Z,97.40
2023-01-10T16:23:36.258Z,97.28
2023-01-10T16:26:09.519Z,97.06
2023-01-10T16:28:38.010Z,97.50
2023-01-10T16:31:14.803Z,97.20
2023-01-10T16:33:42.258Z,97.10
2023-01-10T16:36:20.982Z,97.26
2023-01-10T16:38:48.684Z,97.23
2023-01-10T16:41:35.002Z,97.49
2023-01-10T16:44:02.662Z,97.87
2023-01-10T16:46:31.169Z,98.17
2023-01-10T16:48:58.570Z,98.30
2023-01-10T16:51:32.699Z,98.44
2023-01-10T16:54:00.851Z,98.48
2023-01-10T16:56:30.104Z,98.41
2023-01-10T16:58:58.168Z,98.37
2023-01-10T17:01:34.953Z,99.36
2023-01-10T17:04:04.784Z,99.50
2023-01-10T17:06:32.570Z,99.41
2023-01-10T17:08:59.987Z,99.11
2023-01-10T17:11:37.292Z,98.92
2023-01-10T17:14:05.615Z,98.74
2023-01-10T17:16:35.296Z,98.01
2023-01-10T17:19:02.787Z,97.40
2023-01-10T17:21:30.396Z,97.20
2023-01-10T17:23:57.685Z,96.34
2023-01-10T17:26:25.384Z,95.84
2023-01-10T17:28:52.655Z,95.85
2023-01-10T17:31:20.508Z,95.62
2023-01-10T17:33:51.046Z,95.40
2023-01-10T17:36:19.600Z,95.13
2023-01-10T17:38:47.190Z,95.13
2023-01-10T17:41:15.014Z,94.99
2023-01-10T17:43:42.314Z,94.47
2023-01-10T17:46:11.130Z,94.61
2023-01-10T17:48:38.972Z,94.55
2023-01-10T17:51:07.709Z,94.56
2023-01-10T17:53:35.448Z,94.71
2023-01-10T17:56:05.884Z,94.79
2023-01-10T17:58:35.052Z,94.90
2023-01-10T18:01:02.546Z,94.78
2023-01-10T18:03:30.180Z,94.75
2023-01-10T18:05:59.427Z,94.90
2023-01-10T18:08:27.272Z,94.95
2023-01-10T18:11:04.615Z,94.88
2023-01-10T18:13:32.276Z,94.92
2023-01-10T18:16:01.640Z,95.07
2023-01-10T18:18:30.683Z,95.27
2023-01-10T18:21:01.051Z,95.41
2023-01-10T18:23:30.838Z,95.27
2023-01-10T18:26:04.345Z,95.22
2023-01-10T18:28:42.945Z,95.37
2023-01-10T18:31:18.916Z,95.18
2023-01-10T18:33:48.062Z,95.32
2023-01-10T18:36:24.370Z,95.09
2023-01-10T18:38:53.044Z,95.12
2023-01-10T18:41:21.624Z,95.21
2023-01-10T18:43:49.741Z,94.87
2023-01-10T18:46:21.967Z,94.72
2023-01-10T18:48:52.960Z,95.10
2023-01-10T18:51:22.719Z,94.71
2023-01-10T18:53:53.016Z,95.22
2023-01-10T18:56:20.546Z,95.37
2023-01-10T18:58:48.232Z,95.67
2023-01-10T19:01:20.047Z,95.69
2023-01-10T19:03:48.242Z,95.63
2023-01-10T19:06:18.310Z,95.48
2023-01-10T19:08:47.482Z,95.74
2023-01-10T19:11:16.686Z,95.45
2023-01-10T19:13:47.133Z,95.85
2023-01-10T19:16:26.469Z,95.68
2023-01-10T19:18:57.864Z,95.59
2023-01-10T19:21:27.521Z,95.51
2023-01-10T19:23:59.746Z,95.60
2023-01-10T19:26:27.606Z,95.79
2023-01-10T19:28:55.226Z,95.65
2023-01-10T19:31:26.931Z,95.59
2023-01-10T19:33:58.849Z,96.05
2023-01-10T19:36:26.906Z,96.03
2023-01-10T19:38:57.491Z,96.10
2023-01-10T19:41:27.946Z,96.12
2023-01-10T19:44:01.394Z,96.34
2023-01-10T19:46:32.335Z,95.94
2023-01-10T19:49:07.868Z,95.93
2023-01-10T19:51:40.791Z,95.97
2023-01-10T19:54:09.174Z,95.79
2023-01-10T19:56:37.080Z,95.71
2023-01-10T19:59:04.712Z,95.80
2023-01-10T20:01:32.366Z,96.00
2023-01-10T20:04:06.549Z,96.06
2023-01-10T20:06:39.047Z,96.14
2023-01-10T20:09:08.664Z,96.20
2023-01-10T20:11:40.458Z,96.19
2023-01-10T20:14:20.620Z,96.34
2023-01-10T20:16:49.095Z,96.32
2023-01-10T20:19:17.641Z,96.06
2023-01-10T20:21:45.045Z,96.18
2023-01-10T20:24:19.221Z,95.86
2023-01-10T20:26:49.798Z,96.03
2023-01-10T20:29:18.959Z,96.16
2023-01-10T20:31:49.728Z,96.27
2023-01-10T20:34:17.461Z,96.29
2023-01-10T20:36:44.870Z,96.56
2023-01-10T20:39:12.721Z,96.81
2023-01-10T20:41:40.090Z,96.53
2023-01-10T20:44:07.730Z,96.55
2023-01-10T20:46:36.796Z,96.88
2023-01-10T20:49:04.703Z,96.67
2023-01-10T20:51:35.497Z,96.71
2023-01-10T20:54:05.964Z,96.42
2023-01-10T20:56:33.443Z,96.31
2023-01-10T20:59:01.759Z,96.44
2023-01-10T21:01:35.179Z,96.08
2023-01-10T21:04:06.564Z,96.42
2023-01-10T21:06:35.479Z,96.34
2023-01-10T21:09:04.639Z,96.09
2023-01-10T21:11:36.733Z,96.14
2023-01-10T21:14:13.212Z,96.17
2023-01-10T21:16:40.440Z,96.15
2023-01-10T21:19:10.527Z,96.27
2023-01-10T21:21:38.466Z,96.10
2023-01-10T21:24:06.569Z,96.02
2023-01-10T21:26:33.909Z,96.15
2023-01-10T21:29:02.557Z,96.16
2023-01-10T21:31:30.064Z,96.12
2023-01-10T21:33:57.670Z,96.15
2023-01-10T21:36:25.113Z,96.43
2023-01-10T21:38:52.849Z,96.66
2023-01-10T21:41:39.379Z,96.88
2023-01-10T21:44:08.107Z,96.92
2023-01-10T21:46:36.469Z,97.12
2023-01-10T21:49:04.986Z,97.18
2023-01-10T21:51:32.328Z,97.10
2023-01-10T21:53:59.924Z,97.22
2023-01-10T21:56:27.181Z,97.25
2023-01-10T21:58:54.695Z,97.02
2023-01-10T22:01:22.078Z,96.86
2023-01-10T22:03:49.721Z,97.05
2023-01-10T22:06:17.230Z,96.75
2023-01-10T22:08:44.803Z,96.69
2023-01-10T22:11:12.168Z,96.86
2023-01-10T22:13:40.306Z,96.85
2023-01-10T22:16:08.109Z,96.61
2023-01-10T22:18:35.827Z,96.63
2023-01-10T22:21:03.453Z,96.34
2023-01-10T22:23:31.286Z,96.35
2023-01-10T22:26:05.600Z,95.98
2023-01-10T22:28:34.307Z,96.33
2023-01-10T22:31:02.619Z,95.96
2023-01-10T22:33:35.018Z,96.14
2023-01-10T22:36:06.606Z,96.42
2023-01-10T22:38:34.925Z,96.75
2023-01-10T22:41:15.146Z,96.85
2023-01-10T22:43:43.512Z,96.86
2023-01-10T22:46:11.238Z,96.86
2023-01-10T22:48:38.893Z,96.95
2023-01-10T22:51:06.942Z,97.03
2023-01-10T22:53:35.512Z,97.11
2023-01-10T22:56:06.004Z,97.05
2023-01-10T22:58:47.814Z,97.04
2023-01-10T23:01:19.581Z,97.44
2023-01-10T23:03:47.838Z,97.41
2023-01-10T23:06:17.224Z,97.38
2023-01-10T23:08:45.297Z,97.09
2023-01-10T23:11:17.382Z,97.25
2023-01-10T23:13:46.671Z,97.47
2023-01-10T23:16:20.287Z,97.22
2023-01-10T23:18:49.591Z,97.09
2023-01-10T23:21:17.046Z,97.10
2023-01-10T23:23:44.651Z,97.13
2023-01-10T23:26:13.521Z,97.04
2023-01-10T23:28:50.803Z,96.83
2023-01-10T23:31:22.537Z,96.81
2023-01-10T23:33:51.375Z,96.69
2023-01-10T23:36:19.149Z,96.64
2023-01-10T23:38:46.787Z,96.73
2023-01-10T23:41:14.211Z,96.69
2023-01-10T23:43:42.800Z,96.74
2023-01-10T23:46:10.424Z,96.86
2023-01-10T23:48:38.226Z,96.80
2023-01-10T23:51:07.885Z,97.11
2023-01-10T23:53:35.495Z,96.95
2023-01-10T23:56:14.945Z,96.96
2023-01-10T23:58:42.531Z,96.80
